sensor_id;sensor_type;location;lat;lon;timestamp;pressure;altitude;pressure_sealevel;temperature;humidity
12913;BME280;6524;51.368;11.984;2023-07-20T04:04:11;155420.63;;;12.85;83.64
12913;BME280;6524;51.368;11.984;2023-07-20T04:09:11;155402.34;;;12.78;83.59
12913;BME280;6524;51.368;11.984;2023-07-20T04:14:12;155397.09;;;12.76;83.60
12913;BME280;6524;51.368;11.984;2023-07-20T04:19:12;155424.53;;;12.87;83.00
12913;BME280;6524;51.368;11.984;2023-07-20T04:24:13;155474.28;;;13.06;82.52
12913;BME280;6524;51.368;11.984;2023-07-20T04:29:13;155488.63;;;13.12;81.99
12913;BME280;6524;51.368;11.984;2023-07-20T04:34:13;155480.78;;;13.09;83.34
12913;BME280;6524;51.368;11.984;2023-07-20T04:39:13;155546.25;;;13.34;81.32
12913;BME280;6524;51.368;11.984;2023-07-20T04:44:14;155586.88;;;13.50;80.73
12913;BME280;6524;51.368;11.984;2023-07-20T04:49:14;155644.47;;;13.73;80.17
12913;BME280;6524;51.368;11.984;2023-07-20T04:54:15;155651.00;;;13.75;79.37
12913;BME280;6524;51.368;11.984;2023-07-20T04:59:17;155751.78;;;14.14;77.15
12913;BME280;6524;51.368;11.984;2023-07-20T05:04:17;155779.38;;;14.25;75.33
12913;BME280;6524;51.368;11.984;2023-07-20T05:09:17;155802.94;;;14.34;73.91
12913;BME280;6524;51.368;11.984;2023-07-20T05:14:18;155818.59;;;14.40;74.16
12913;BME280;6524;51.368;11.984;2023-07-20T05:19:18;155915.56;;;14.78;72.27
12913;BME280;6524;51.368;11.984;2023-07-20T05:24:18;155974.56;;;15.01;71.00
12913;BME280;6524;51.368;11.984;2023-07-20T05:29:18;155905.06;;;14.74;71.13
12913;BME280;6524;51.368;11.984;2023-07-20T05:34:19;155914.22;;;14.78;71.11
12913;BME280;6524;51.368;11.984;2023-07-20T05:39:21;155968.00;;;14.99;71.32
12913;BME280;6524;51.368;11.984;2023-07-20T05:44:21;156091.16;;;15.47;68.50
12913;BME280;6524;51.368;11.984;2023-07-20T05:49:21;156285.22;;;16.22;64.90
12913;BME280;6524;51.368;11.984;2023-07-20T05:54:23;156392.78;;;16.64;62.51
12913;BME280;6524;51.368;11.984;2023-07-20T05:59:24;156320.63;;;16.36;63.36
12913;BME280;6524;51.368;11.984;2023-07-20T06:04:24;156463.63;;;16.92;61.68
12913;BME280;6524;51.368;11.984;2023-07-20T06:09:25;156489.84;;;17.02;60.85
12913;BME280;6524;51.368;11.984;2023-07-20T06:14:25;156481.97;;;16.99;60.98
12913;BME280;6524;51.368;11.984;2023-07-20T06:19:25;156552.88;;;17.27;59.48
12913;BME280;6524;51.368;11.984;2023-07-20T06:24:26;156395.41;;;16.65;62.39
12913;BME280;6524;51.368;11.984;2023-07-20T06:29:26;156335.09;;;16.42;62.98
12913;BME280;6524;51.368;11.984;2023-07-20T06:34:26;156332.41;;;16.41;62.52
12913;BME280;6524;51.368;11.984;2023-07-20T06:39:26;156340.31;;;16.44;63.21
12913;BME280;6524;51.368;11.984;2023-07-20T06:44:27;156463.63;;;16.92;61.57
12913;BME280;6524;51.368;11.984;2023-07-20T06:49:27;156516.13;;;17.12;61.10
12913;BME280;6524;51.368;11.984;2023-07-20T06:54:28;156424.28;;;16.77;62.07
12913;BME280;6524;51.368;11.984;2023-07-20T06:59:28;156340.31;;;16.44;63.32
12913;BME280;6524;51.368;11.984;2023-07-20T07:04:28;156291.75;;;16.25;64.05
12913;BME280;6524;51.368;11.984;2023-07-20T07:09:29;156356.03;;;16.50;64.36
12913;BME280;6524;51.368;11.984;2023-07-20T07:14:29;156318.00;;;16.35;64.68
12913;BME280;6524;51.368;11.984;2023-07-20T07:19:29;156384.91;;;16.61;64.16
12913;BME280;6524;51.368;11.984;2023-07-20T07:24:30;156467.53;;;16.93;62.21
12913;BME280;6524;51.368;11.984;2023-07-20T07:29:33;156571.22;;;17.34;61.33
12913;BME280;6524;51.368;11.984;2023-07-20T07:34:34;157050.56;;;19.20;56.36
12913;BME280;6524;51.368;11.984;2023-07-20T07:39:34;156944.09;;;18.79;56.31
12913;BME280;6524;51.368;11.984;2023-07-20T07:44:35;156835.09;;;18.37;57.22
12913;BME280;6524;51.368;11.984;2023-07-20T07:49:36;156707.75;;;17.87;58.29
12913;BME280;6524;51.368;11.984;2023-07-20T07:54:36;156790.44;;;18.19;57.61
12913;BME280;6524;51.368;11.984;2023-07-20T07:59:37;156857.41;;;18.45;55.25
12913;BME280;6524;51.368;11.984;2023-07-20T08:04:37;156962.50;;;18.86;53.41
12913;BME280;6524;51.368;11.984;2023-07-20T08:09:39;157164.84;;;19.65;52.51
12913;BME280;6524;51.368;11.984;2023-07-20T08:14:39;157438.31;;;20.71;50.41
12913;BME280;6524;51.368;11.984;2023-07-20T08:19:40;157554.06;;;21.16;47.75
12913;BME280;6524;51.368;11.984;2023-07-20T08:24:42;157355.41;;;20.39;50.72
12913;BME280;6524;51.368;11.984;2023-07-20T08:29:43;157096.50;;;19.38;50.72
12913;BME280;6524;51.368;11.984;2023-07-20T12:09:16;156953.34;;;18.83;54.19
12913;BME280;6524;51.368;11.984;2023-07-20T12:14:17;156974.31;;;18.91;56.19
12913;BME280;6524;51.368;11.984;2023-07-20T12:19:17;157132.00;;;19.52;53.54
12913;BME280;6524;51.368;11.984;2023-07-20T12:24:18;157322.56;;;20.26;50.65
12913;BME280;6524;51.368;11.984;2023-07-20T12:29:18;157209.53;;;19.82;50.95
12913;BME280;6524;51.368;11.984;2023-07-20T12:34:18;156835.09;;;18.37;53.61
12913;BME280;6524;51.368;11.984;2023-07-20T12:39:19;156810.16;;;18.27;53.25
12913;BME280;6524;51.368;11.984;2023-07-20T12:44:19;156734.00;;;17.97;55.33
12913;BME280;6524;51.368;11.984;2023-07-20T12:49:19;156812.75;;;18.28;54.87
12913;BME280;6524;51.368;11.984;2023-07-20T12:54:20;156882.41;;;18.55;53.61
12913;BME280;6524;51.368;11.984;2023-07-20T12:59:20;156845.56;;;18.41;52.40
12913;BME280;6524;51.368;11.984;2023-07-20T13:04:20;156832.47;;;18.36;52.27
12913;BME280;6524;51.368;11.984;2023-07-20T13:09:21;156846.88;;;18.41;50.35
12913;BME280;6524;51.368;11.984;2023-07-20T13:14:21;156899.47;;;18.62;50.76
12913;BME280;6524;51.368;11.984;2023-07-20T13:19:21;156941.47;;;18.78;50.72
12913;BME280;6524;51.368;11.984;2023-07-20T13:24:22;156949.34;;;18.81;49.12
12913;BME280;6524;51.368;11.984;2023-07-20T13:29:23;157099.16;;;19.39;49.22
12913;BME280;6524;51.368;11.984;2023-07-20T13:34:25;157053.19;;;19.21;49.27
12913;BME280;6524;51.368;11.984;2023-07-20T13:39:26;157293.69;;;20.15;47.46
12913;BME280;6524;51.368;11.984;2023-07-20T13:44:29;157333.13;;;20.30;45.76
12913;BME280;6524;51.368;11.984;2023-07-20T13:49:31;157180.63;;;19.71;46.20
12913;BME280;6524;51.368;11.984;2023-07-20T13:54:32;157314.69;;;20.23;45.91
12913;BME280;6524;51.368;11.984;2023-07-20T13:59:36;157463.31;;;20.81;44.14
12913;BME280;6524;51.368;11.984;2023-07-20T14:04:36;157467.22;;;20.82;44.08
12913;BME280;6524;51.368;11.984;2023-07-20T14:09:37;157406.78;;;20.59;42.22
12913;BME280;6524;51.368;11.984;2023-07-20T14:14:42;157224.00;;;19.88;43.89
12913;BME280;6524;51.368;11.984;2023-07-20T14:19:42;157414.66;;;20.62;39.38
12913;BME280;6524;51.368;11.984;2023-07-20T14:24:43;157330.44;;;20.29;43.19
12913;BME280;6524;51.368;11.984;2023-07-20T14:29:43;157368.63;;;20.44;41.00
12913;BME280;6524;51.368;11.984;2023-07-20T14:34:44;157568.53;;;21.22;41.61
12913;BME280;6524;51.368;11.984;2023-07-20T14:39:45;157484.31;;;20.89;40.37
12913;BME280;6524;51.368;11.984;2023-07-20T14:44:45;157387.03;;;20.51;40.87
12913;BME280;6524;51.368;11.984;2023-07-20T14:49:46;157325.22;;;20.27;39.81
12913;BME280;6524;51.368;11.984;2023-07-20T14:54:46;157442.25;;;20.73;40.14
12913;BME280;6524;51.368;11.984;2023-07-20T14:59:46;157433.06;;;20.69;38.87
12913;BME280;6524;51.368;11.984;2023-07-20T15:04:50;157572.47;;;21.23;38.80
12913;BME280;6524;51.368;11.984;2023-07-20T15:09:51;157661.91;;;21.58;36.79
12913;BME280;6524;51.368;11.984;2023-07-20T15:15:06;157647.47;;;21.52;36.91
12913;BME280;6524;51.368;11.984;2023-07-20T15:20:09;157575.13;;;21.24;34.92
12913;BME280;6524;51.368;11.984;2023-07-20T15:25:10;157352.81;;;20.38;35.59
12913;BME280;6524;51.368;11.984;2023-07-20T15:30:13;157246.34;;;19.97;36.27
12913;BME280;6524;51.368;11.984;2023-07-20T15:35:14;157183.22;;;19.72;37.34
12913;BME280;6524;51.368;11.984;2023-07-20T15:40:16;157230.59;;;19.90;37.44
12913;BME280;6524;51.368;11.984;2023-07-20T15:45:17;157304.19;;;20.19;36.81
12913;BME280;6524;51.368;11.984;2023-07-20T15:50:17;157417.28;;;20.63;35.89
12913;BME280;6524;51.368;11.984;2023-07-20T15:55:17;157231.88;;;19.91;37.00
12913;BME280;6524;51.368;11.984;2023-07-20T16:00:18;157272.63;;;20.07;37.31
12913;BME280;6524;51.368;11.984;2023-07-20T16:05:19;157217.44;;;19.85;38.09
12913;BME280;6524;51.368;11.984;2023-07-20T16:10:19;157346.22;;;20.35;35.96
12913;BME280;6524;51.368;11.984;2023-07-20T16:15:19;157373.91;;;20.46;36.21
12913;BME280;6524;51.368;11.984;2023-07-20T16:20:21;157268.72;;;20.05;35.78
12913;BME280;6524;51.368;11.984;2023-07-20T16:25:21;157243.75;;;19.96;35.73
12913;BME280;6524;51.368;11.984;2023-07-20T16:30:22;157209.53;;;19.82;35.89
12913;BME280;6524;51.368;11.984;2023-07-20T16:35:23;157256.84;;;20.01;36.12
12913;BME280;6524;51.368;11.984;2023-07-20T16:40:23;157138.59;;;19.55;35.98
12913;BME280;6524;51.368;11.984;2023-07-20T16:45:24;157201.66;;;19.79;35.87
12913;BME280;6524;51.368;11.984;2023-07-20T16:50:25;157313.38;;;20.23;35.62
12913;BME280;6524;51.368;11.984;2023-07-20T16:55:28;157262.13;;;20.03;36.06
12913;BME280;6524;51.368;11.984;2023-07-20T17:00:28;157191.09;;;19.75;36.46
12913;BME280;6524;51.368;11.984;2023-07-20T17:05:30;157164.84;;;19.65;37.23
12913;BME280;6524;51.368;11.984;2023-07-20T17:10:30;157209.53;;;19.82;37.14
12913;BME280;6524;51.368;11.984;2023-07-20T17:15:31;157175.34;;;19.69;37.35
12913;BME280;6524;51.368;11.984;2023-07-20T17:20:42;157162.19;;;19.64;36.66
12913;BME280;6524;51.368;11.984;2023-07-20T17:25:44;157091.28;;;19.36;37.14
12913;BME280;6524;51.368;11.984;2023-07-20T17:30:56;157083.41;;;19.33;38.67
12913;BME280;6524;51.368;11.984;2023-07-20T17:35:57;157099.16;;;19.39;39.17
12913;BME280;6524;51.368;11.984;2023-07-20T17:40:57;157080.75;;;19.32;39.61
12913;BME280;6524;51.368;11.984;2023-07-20T17:45:58;157080.75;;;19.32;37.65
12913;BME280;6524;51.368;11.984;2023-07-20T17:50:59;157049.22;;;19.20;37.09
12913;BME280;6524;51.368;11.984;2023-07-20T17:55:59;157029.47;;;19.12;38.65
12913;BME280;6524;51.368;11.984;2023-07-20T18:01:01;157022.91;;;19.10;38.25
12913;BME280;6524;51.368;11.984;2023-07-20T18:06:06;156992.69;;;18.98;38.68
12913;BME280;6524;51.368;11.984;2023-07-20T18:11:07;156970.38;;;18.89;39.69
12913;BME280;6524;51.368;11.984;2023-07-20T18:16:09;156951.97;;;18.82;38.67
12913;BME280;6524;51.368;11.984;2023-07-20T18:21:10;156965.13;;;18.87;39.46
12913;BME280;6524;51.368;11.984;2023-07-20T18:26:10;156944.09;;;18.79;38.80
12913;BME280;6524;51.368;11.984;2023-07-20T18:31:11;156858.72;;;18.46;40.11
12913;BME280;6524;51.368;11.984;2023-07-20T18:36:12;156802.28;;;18.24;40.86
12913;BME280;6524;51.368;11.984;2023-07-20T18:41:13;156786.53;;;18.18;41.13
12913;BME280;6524;51.368;11.984;2023-07-20T18:46:16;156749.75;;;18.03;42.68
12913;BME280;6524;51.368;11.984;2023-07-20T18:51:19;156692.00;;;17.81;43.61
12913;BME280;6524;51.368;11.984;2023-07-20T18:56:20;156673.59;;;17.74;45.24
12913;BME280;6524;51.368;11.984;2023-07-20T19:01:20;156670.94;;;17.73;46.38
12913;BME280;6524;51.368;11.984;2023-07-20T19:06:22;156619.78;;;17.53;46.45
12913;BME280;6524;51.368;11.984;2023-07-20T19:11:22;156546.31;;;17.24;46.02
12913;BME280;6524;51.368;11.984;2023-07-20T19:16:24;156475.41;;;16.97;46.41
12913;BME280;6524;51.368;11.984;2023-07-20T19:21:26;156449.19;;;16.86;46.46
12913;BME280;6524;51.368;11.984;2023-07-20T19:26:33;156363.91;;;16.53;46.30
12913;BME280;6524;51.368;11.984;2023-07-20T19:31:33;156384.91;;;16.61;48.35
12913;BME280;6524;51.368;11.984;2023-07-20T19:36:36;156324.53;;;16.38;49.67
12913;BME280;6524;51.368;11.984;2023-07-20T19:41:37;156380.97;;;16.60;49.73
12913;BME280;6524;51.368;11.984;2023-07-20T19:46:38;156327.19;;;16.39;51.22
12913;BME280;6524;51.368;11.984;2023-07-20T19:51:39;156234.06;;;16.02;51.52
12913;BME280;6524;51.368;11.984;2023-07-20T19:56:39;156169.84;;;15.77;51.51
12913;BME280;6524;51.368;11.984;2023-07-20T20:01:41;156188.19;;;15.85;52.59
12913;BME280;6524;51.368;11.984;2023-07-20T20:06:42;156140.97;;;15.66;53.25
12913;BME280;6524;51.368;11.984;2023-07-20T20:11:43;156078.06;;;15.42;53.17
12913;BME280;6524;51.368;11.984;2023-07-20T20:16:44;156047.91;;;15.30;52.23
12913;BME280;6524;51.368;11.984;2023-07-20T20:21:44;156021.72;;;15.20;51.53
12913;BME280;6524;51.368;11.984;2023-07-20T20:26:44;155995.47;;;15.09;51.98
12913;BME280;6524;51.368;11.984;2023-07-20T20:31:45;155962.72;;;14.97;51.10
12913;BME280;6524;51.368;11.984;2023-07-20T20:36:45;155899.84;;;14.72;51.38
12913;BME280;6524;51.368;11.984;2023-07-20T20:41:46;155912.91;;;14.77;54.21
12913;BME280;6524;51.368;11.984;2023-07-20T20:46:51;155860.56;;;14.57;56.16
12913;BME280;6524;51.368;11.984;2023-07-20T20:51:51;155771.50;;;14.22;55.24
12913;BME280;6524;51.368;11.984;2023-07-20T20:56:52;155805.53;;;14.35;54.92
12913;BME280;6524;51.368;11.984;2023-07-20T21:01:54;155717.75;;;14.01;56.74
12913;BME280;6524;51.368;11.984;2023-07-20T21:06:54;155703.34;;;13.95;56.93
12913;BME280;6524;51.368;11.984;2023-07-20T21:11:55;155619.59;;;13.63;57.97
12913;BME280;6524;51.368;11.984;2023-07-20T21:16:55;155656.22;;;13.77;57.98
12913;BME280;6524;51.368;11.984;2023-07-20T21:21:57;155641.81;;;13.71;56.83
12913;BME280;6524;51.368;11.984;2023-07-20T21:26:58;155581.63;;;13.48;57.89
12913;BME280;6524;51.368;11.984;2023-07-20T21:31:59;155533.16;;;13.29;58.38
12913;BME280;6524;51.368;11.984;2023-07-20T21:37:00;155496.50;;;13.15;59.71
12913;BME280;6524;51.368;11.984;2023-07-20T21:42:01;155491.28;;;13.13;58.92
12913;BME280;6524;51.368;11.984;2023-07-20T21:47:02;155480.78;;;13.09;59.60
12913;BME280;6524;51.368;11.984;2023-07-20T21:52:03;155478.19;;;13.08;60.49
12913;BME280;6524;51.368;11.984;2023-07-20T21:57:03;155435.03;;;12.91;61.65
12913;BME280;6524;51.368;11.984;2023-07-20T22:02:04;155469.03;;;13.04;61.59
12913;BME280;6524;51.368;11.984;2023-07-20T22:07:09;155419.34;;;12.85;62.05
12913;BME280;6524;51.368;11.984;2023-07-20T22:12:19;155329.00;;;12.49;61.93
12913;BME280;6524;51.368;11.984;2023-07-20T22:17:19;155355.25;;;12.60;62.39
12913;BME280;6524;51.368;11.984;2023-07-20T22:22:20;155404.94;;;12.79;62.21
12913;BME280;6524;51.368;11.984;2023-07-20T22:27:21;155347.38;;;12.56;63.42
12913;BME280;6524;51.368;11.984;2023-07-20T22:32:21;155334.28;;;12.51;62.76
12913;BME280;6524;51.368;11.984;2023-07-20T22:37:21;155368.28;;;12.65;62.78
12913;BME280;6524;51.368;11.984;2023-07-20T22:42:22;155355.25;;;12.60;61.44
12913;BME280;6524;51.368;11.984;2023-07-20T22:47:22;155343.44;;;12.55;63.23
12913;BME280;6524;51.368;11.984;2023-07-20T22:52:22;155313.34;;;12.43;63.02
12913;BME280;6524;51.368;11.984;2023-07-20T22:57:23;155344.72;;;12.55;63.28
12913;BME280;6524;51.368;11.984;2023-07-20T23:02:23;155310.69;;;12.42;64.47
12913;BME280;6524;51.368;11.984;2023-07-20T23:07:24;155305.50;;;12.40;64.06
12913;BME280;6524;51.368;11.984;2023-07-20T23:12:24;155370.94;;;12.66;63.55
12913;BME280;6524;51.368;11.984;2023-07-20T23:17:24;155340.84;;;12.54;64.46
12913;BME280;6524;51.368;11.984;2023-07-20T23:22:25;155428.47;;;12.88;63.62
12913;BME280;6524;51.368;11.984;2023-07-20T23:27:25;155318.53;;;12.45;64.43
12913;BME280;6524;51.368;11.984;2023-07-20T23:32:25;155339.53;;;12.53;63.75
12913;BME280;6524;51.368;11.984;2023-07-20T23:37:26;155355.25;;;12.60;63.02
12913;BME280;6524;51.368;11.984;2023-07-20T23:42:26;155295.00;;;12.36;64.13
12913;BME280;6524;51.368;11.984;2023-07-20T23:47:27;155386.63;;;12.72;62.92
12913;BME280;6524;51.368;11.984;2023-07-20T23:52:27;155407.53;;;12.80;62.17
12913;BME280;6524;51.368;11.984;2023-07-20T23:57:29;155381.38;;;12.70;62.79
